Time;durP1;ratioP1;P1;durP2;ratioP2;P2;SDS_P1;SDS_P2;PMS_P1;PMS_P2;Temp;Humidity;BMP_temperature;BMP_pressure;BME280_temperature;BME280_humidity;BME280_pressure;Samples;Min_cycle;Max_cycle;Signal;HPM_P1;HPM_P2
2023/07/23 04:01:22;;;;;;;;;;;14.30;99.90;;;;;;5573488;23;20019;-78
2023/07/23 04:03:47;;;;;;;;;;;14.20;99.90;;;;;;5055533;28;19955;-79
2023/07/23 04:06:13;;;;;;;;;;;14.30;99.90;;;;;;5055083;28;19917;-78
2023/07/23 04:08:38;;;;;;;;;;;14.20;99.90;;;;;;5055318;28;19917;-79
2023/07/23 04:11:04;;;;;;;;;;;14.20;99.90;;;;;;5055109;28;19921;-78
2023/07/23 04:13:30;;;;;;;;;;;14.30;99.90;;;;;;5055338;28;19916;-78
2023/07/23 04:15:55;;;;;;;;;;;14.20;99.90;;;;;;5055247;28;19974;-79
2023/07/23 04:18:21;;;;;;;;;;;14.20;99.90;;;;;;5055115;28;20011;-78
2023/07/23 04:20:46;;;;;;;;;;;14.20;99.90;;;;;;5055504;28;20321;-79
2023/07/23 04:23:12;;;;;;;;;;;14.20;99.90;;;;;;5055355;28;19916;-79
2023/07/23 04:25:37;;;;;;;;;;;14.20;99.90;;;;;;5038373;28;20007;-78
2023/07/23 04:28:03;;;;;;;;;;;14.20;99.90;;;;;;5055294;28;20016;-79
2023/07/23 04:30:30;;;;;;;;;;;14.20;99.90;;;;;;5054906;28;19917;-79
2023/07/23 04:32:55;;;;;;;;;;;14.20;99.90;;;;;;5055184;28;19975;-78
2023/07/23 04:35:21;;;;;;;;;;;14.20;99.90;;;;;;5054839;28;19943;-78
2023/07/23 04:37:46;;;;;;;;;;;14.20;99.90;;;;;;5054646;28;19966;-78
2023/07/23 04:40:12;;;;;;;;;;;14.20;99.90;;;;;;5038095;28;20008;-78
2023/07/23 04:42:38;;;;;;;;;;;14.20;99.90;;;;;;5054717;28;19917;-79
2023/07/23 04:45:04;;;;;;;;;;;14.20;99.90;;;;;;5054595;28;19935;-78
2023/07/23 04:47:29;;;;;;;;;;;14.20;99.90;;;;;;5054774;28;19943;-78
2023/07/23 04:49:56;;;;;;;;;;;14.20;99.90;;;;;;5054530;28;19924;-78
2023/07/23 04:52:22;;;;;;;;;;;14.20;99.90;;;;;;5054440;28;19970;-79
2023/07/23 04:54:47;;;;;;;;;;;14.20;99.90;;;;;;5054527;28;19925;-78
2023/07/23 04:57:13;;;;;;;;;;;14.20;99.90;;;;;;5054324;28;19973;-78
2023/07/23 04:59:38;;;;;;;;;;;14.20;99.90;;;;;;5054345;28;19916;-78
2023/07/23 05:02:04;;;;;;;;;;;14.20;99.90;;;;;;5054105;28;19920;-80
2023/07/23 05:04:29;;;;;;;;;;;14.20;99.90;;;;;;5055353;28;19923;-79
2023/07/23 05:06:55;;;;;;;;;;;14.20;99.90;;;;;;5054178;28;19966;-79
2023/07/23 05:09:20;;;;;;;;;;;14.20;99.90;;;;;;5054166;28;20016;-77
2023/07/23 05:11:46;;;;;;;;;;;14.20;99.90;;;;;;5054102;28;20019;-79
2023/07/23 05:14:12;;;;;;;;;;;14.20;99.90;;;;;;5054118;28;19924;-80
2023/07/23 05:16:37;;;;;;;;;;;14.20;99.90;;;;;;5055336;28;19923;-79
2023/07/23 05:19:03;;;;;;;;;;;14.20;99.90;;;;;;5053814;28;19935;-79
2023/07/23 05:21:29;;;;;;;;;;;14.20;99.90;;;;;;5053867;28;20004;-79
2023/07/23 05:23:55;;;;;;;;;;;14.20;99.90;;;;;;5054643;28;20035;-78
2023/07/23 05:26:20;;;;;;;;;;;14.30;99.90;;;;;;5054122;28;19974;-77
2023/07/23 05:28:46;;;;;;;;;;;14.30;99.90;;;;;;5054112;28;20276;-78
2023/07/23 05:31:11;;;;;;;;;;;14.30;99.90;;;;;;5054002;28;20288;-79
2023/07/23 05:33:37;;;;;;;;;;;14.30;99.90;;;;;;5053587;28;19916;-77
2023/07/23 05:36:02;;;;;;;;;;;14.30;99.90;;;;;;5053637;28;19917;-80
2023/07/23 05:38:28;;;;;;;;;;;14.30;99.90;;;;;;5053540;28;19927;-78
2023/07/23 05:40:54;;;;;;;;;;;14.30;99.90;;;;;;5053481;28;19920;-78
2023/07/23 05:43:20;;;;;;;;;;;14.30;99.90;;;;;;5053581;28;19972;-79
2023/07/23 05:45:45;;;;;;;;;;;14.40;99.90;;;;;;5053430;28;19917;-80
2023/07/23 05:48:11;;;;;;;;;;;14.40;99.90;;;;;;5054705;28;20214;-77
2023/07/23 05:50:36;;;;;;;;;;;14.40;99.90;;;;;;5053385;28;19917;-79
2023/07/23 05:53:03;;;;;;;;;;;14.40;99.90;;;;;;5053976;28;19916;-79
2023/07/23 05:55:28;;;;;;;;;;;14.40;99.90;;;;;;5053270;28;19923;-80
2023/07/23 05:57:54;;;;;;;;;;;14.40;99.90;;;;;;5053092;28;19925;-80
2023/07/23 06:00:19;;;;;;;;;;;14.40;99.90;;;;;;5053019;28;19916;-78
2023/07/23 06:02:45;;;;;;;;;;;14.50;99.90;;;;;;5053527;28;19920;-79
2023/07/23 06:05:10;;;;;;;;;;;14.50;99.90;;;;;;5053040;28;19923;-80
2023/07/23 06:07:36;;;;;;;;;;;14.50;99.90;;;;;;5053054;28;19991;-78
2023/07/23 06:10:03;;;;;;;;;;;14.50;99.90;;;;;;5053043;28;20291;-78
2023/07/23 06:12:28;;;;;;;;;;;14.50;99.90;;;;;;5053091;28;19947;-78
2023/07/23 06:14:54;;;;;;;;;;;14.60;99.90;;;;;;5052981;28;19917;-80
2023/07/23 06:17:20;;;;;;;;;;;14.60;99.90;;;;;;5052890;28;19921;-78
2023/07/23 06:19:45;;;;;;;;;;;14.60;99.90;;;;;;5054839;28;20315;-78
2023/07/23 06:22:11;;;;;;;;;;;14.60;99.90;;;;;;5053338;28;20302;-77
2023/07/23 06:24:37;;;;;;;;;;;14.60;99.90;;;;;;5053213;28;19921;-79
2023/07/23 06:27:03;;;;;;;;;;;14.70;99.90;;;;;;5054124;28;20387;-79
2023/07/23 06:29:28;;;;;;;;;;;14.70;99.90;;;;;;5052949;28;19917;-80
2023/07/23 06:31:54;;;;;;;;;;;14.70;99.90;;;;;;5052717;28;19921;-80
2023/07/23 06:34:19;;;;;;;;;;;14.70;99.90;;;;;;5053751;28;19916;-80
2023/07/23 06:36:46;;;;;;;;;;;14.70;99.90;;;;;;5036007;28;19920;-79
2023/07/23 06:39:11;;;;;;;;;;;14.70;99.90;;;;;;5053409;28;20249;-79
2023/07/23 06:41:37;;;;;;;;;;;14.70;99.90;;;;;;5052811;28;19924;-78
2023/07/23 06:44:02;;;;;;;;;;;14.70;99.90;;;;;;5052527;28;19917;-79
2023/07/23 06:46:28;;;;;;;;;;;14.80;99.90;;;;;;5053669;28;19924;-77
2023/07/23 06:48:54;;;;;;;;;;;14.80;99.90;;;;;;5053431;28;20018;-78
2023/07/23 06:51:19;;;;;;;;;;;14.90;99.90;;;;;;5053893;28;19917;-79
2023/07/23 06:53:45;;;;;;;;;;;14.90;99.90;;;;;;5035805;28;19939;-79
2023/07/23 06:56:13;;;;;;;;;;;14.90;99.90;;;;;;5053580;28;20003;-81
2023/07/23 06:58:38;;;;;;;;;;;14.90;99.90;;;;;;5052261;28;20011;-79
2023/07/23 07:01:05;;;;;;;;;;;15.00;99.90;;;;;;5052054;28;20019;-78
2023/07/23 07:03:30;;;;;;;;;;;15.00;99.90;;;;;;5052319;28;19971;-80
2023/07/23 07:05:56;;;;;;;;;;;15.10;99.90;;;;;;5052658;28;19964;-79
2023/07/23 07:08:21;;;;;;;;;;;15.10;99.90;;;;;;5052167;28;19917;-79
2023/07/23 07:10:47;;;;;;;;;;;15.10;99.90;;;;;;5035538;28;19995;-80
2023/07/23 07:13:13;;;;;;;;;;;15.20;99.90;;;;;;5051827;28;19960;-80
2023/07/23 07:15:42;;;;;;;;;;;15.20;99.90;;;;;;5051841;28;20023;-79
2023/07/23 07:18:07;;;;;;;;;;;15.20;99.90;;;;;;5052086;28;20015;-81
2023/07/23 07:20:33;;;;;;;;;;;15.30;99.90;;;;;;5052112;28;20004;-80
2023/07/23 07:22:59;;;;;;;;;;;15.30;99.90;;;;;;5052454;28;19970;-80
2023/07/23 07:25:25;;;;;;;;;;;15.30;99.90;;;;;;5035349;28;19917;-83
2023/07/23 07:27:51;;;;;;;;;;;15.30;99.90;;;;;;5053842;28;19923;-78
2023/07/23 07:30:16;;;;;;;;;;;15.30;99.90;;;;;;5056110;28;20295;-80
2023/07/23 07:32:42;;;;;;;;;;;15.40;99.90;;;;;;5056389;28;19916;-80
2023/07/23 07:35:07;;;;;;;;;;;15.30;99.90;;;;;;5056046;28;19923;-80
2023/07/23 07:37:33;;;;;;;;;;;15.30;99.90;;;;;;5056728;28;19920;-80
2023/07/23 07:39:58;;;;;;;;;;;15.30;99.90;;;;;;5039477;28;19920;-80
2023/07/23 07:42:24;;;;;;;;;;;15.30;99.90;;;;;;5056050;28;19920;-79
2023/07/23 07:44:49;;;;;;;;;;;15.30;99.90;;;;;;5055906;28;20459;-80
2023/07/23 07:47:15;;;;;;;;;;;15.30;99.90;;;;;;5055903;28;19940;-80
2023/07/23 07:49:41;;;;;;;;;;;15.30;99.90;;;;;;5057432;28;20003;-82
2023/07/23 07:52:07;;;;;;;;;;;15.30;99.90;;;;;;5057084;28;20010;-80
2023/07/23 07:54:34;;;;;;;;;;;15.20;99.90;;;;;;5057300;28;19924;-80
2023/07/23 07:57:00;;;;;;;;;;;15.20;99.90;;;;;;5055896;28;19924;-80
2023/07/23 07:59:26;;;;;;;;;;;15.20;99.90;;;;;;5055666;28;20008;-81
2023/07/23 08:01:52;;;;;;;;;;;15.30;99.90;;;;;;5055602;28;20320;-79
2023/07/23 08:04:17;;;;;;;;;;;15.20;99.90;;;;;;5055714;28;20011;-79
2023/07/23 08:06:43;;;;;;;;;;;15.20;99.90;;;;;;5055437;28;20368;-80
2023/07/23 08:09:09;;;;;;;;;;;15.30;99.90;;;;;;5056161;28;19920;-80
2023/07/23 08:11:35;;;;;;;;;;;15.30;99.90;;;;;;5055471;28;20364;-79
2023/07/23 08:14:01;;;;;;;;;;;15.20;99.90;;;;;;5051733;28;19924;-79
2023/07/23 08:16:27;;;;;;;;;;;15.30;99.90;;;;;;5035643;28;19917;-78
2023/07/23 08:18:53;;;;;;;;;;;15.20;99.90;;;;;;5035321;28;19971;-78
2023/07/23 08:21:19;;;;;;;;;;;15.20;99.90;;;;;;5035342;28;20368;-80
2023/07/23 08:23:44;;;;;;;;;;;15.20;99.90;;;;;;5035225;28;20027;-80
2023/07/23 08:26:11;;;;;;;;;;;15.20;99.90;;;;;;5035273;28;19917;-79
2023/07/23 08:28:38;;;;;;;;;;;15.20;99.90;;;;;;5035448;28;19924;-81
2023/07/23 08:31:04;;;;;;;;;;;15.30;99.90;;;;;;5035118;28;19955;-80
2023/07/23 08:33:30;;;;;;;;;;;15.20;99.90;;;;;;5035128;28;19968;-81
2023/07/23 08:35:56;;;;;;;;;;;15.20;99.90;;;;;;5035090;28;19924;-80
2023/07/23 08:38:23;;;;;;;;;;;15.30;99.90;;;;;;5018066;28;20300;-80
2023/07/23 08:40:55;;;;;;;;;;;15.30;99.90;;;;;;5035206;28;19924;-81
2023/07/23 08:43:49;;;;;;;;;;;15.30;99.90;;;;;;5035100;28;19917;-81
2023/07/23 08:46:24;;;;;;;;;;;15.30;99.90;;;;;;5034991;28;20443;-80
2023/07/23 08:48:56;;;;;;;;;;;15.30;99.90;;;;;;5018647;28;19970;-80
2023/07/23 08:51:26;;;;;;;;;;;15.30;99.90;;;;;;5036274;28;19917;-82
2023/07/23 08:53:52;;;;;;;;;;;15.40;99.90;;;;;;5034769;28;19962;-83
2023/07/23 08:56:18;;;;;;;;;;;15.40;99.90;;;;;;5035116;28;20358;-80
2023/07/23 08:58:44;;;;;;;;;;;15.40;99.90;;;;;;5034613;28;19931;-83
2023/07/23 09:01:13;;;;;;;;;;;15.50;99.90;;;;;;5034506;28;19953;-86
2023/07/23 09:03:38;;;;;;;;;;;15.40;99.90;;;;;;5018052;28;19924;-79
2023/07/23 09:06:05;;;;;;;;;;;15.40;99.90;;;;;;5034816;28;19976;-77
2023/07/23 09:08:31;;;;;;;;;;;15.40;99.90;;;;;;5034339;28;19924;-78
2023/07/23 09:10:57;;;;;;;;;;;15.50;99.90;;;;;;5034228;28;19923;-76
2023/07/23 09:13:31;;;;;;;;;;;15.50;99.90;;;;;;5034596;28;19917;-79
2023/07/23 09:15:57;;;;;;;;;;;15.40;99.90;;;;;;5034541;28;20271;-77
2023/07/23 09:18:22;;;;;;;;;;;15.50;99.90;;;;;;5034700;28;19921;-77
2023/07/23 09:20:48;;;;;;;;;;;15.50;99.90;;;;;;5034679;28;19921;-78
2023/07/23 09:23:14;;;;;;;;;;;15.50;99.90;;;;;;5035976;28;19925;-77
2023/07/23 09:25:41;;;;;;;;;;;15.50;99.90;;;;;;5034465;28;19917;-79
2023/07/23 09:28:07;;;;;;;;;;;15.50;99.90;;;;;;5035315;28;19963;-79
2023/07/23 09:30:32;;;;;;;;;;;15.50;99.90;;;;;;5033887;28;19921;-79
2023/07/23 09:32:58;;;;;;;;;;;15.50;99.90;;;;;;5034251;28;19917;-79
2023/07/23 09:35:25;;;;;;;;;;;15.50;99.90;;;;;;5034171;28;19921;-79
2023/07/23 09:37:57;;;;;;;;;;;15.50;99.90;;;;;;5034249;28;19920;-77
2023/07/23 09:40:32;;;;;;;;;;;15.50;99.90;;;;;;5033898;28;19924;-79
2023/07/23 09:42:57;;;;;;;;;;;15.50;99.90;;;;;;5034697;28;19917;-77
2023/07/23 09:45:23;;;;;;;;;;;15.60;99.90;;;;;;5034993;28;20379;-79
2023/07/23 09:47:49;;;;;;;;;;;15.60;99.90;;;;;;5033868;28;19917;-78
2023/07/23 09:50:16;;;;;;;;;;;15.60;99.90;;;;;;5032749;28;19931;-79
2023/07/23 09:52:41;;;;;;;;;;;15.60;99.90;;;;;;5034006;28;19916;-80
2023/07/23 09:55:07;;;;;;;;;;;15.60;99.90;;;;;;5033200;28;20378;-79
2023/07/23 09:57:34;;;;;;;;;;;15.60;99.90;;;;;;5033393;28;19928;-77
2023/07/23 10:00:02;;;;;;;;;;;15.70;99.90;;;;;;5033329;28;19917;-79
2023/07/23 10:02:29;;;;;;;;;;;15.70;99.90;;;;;;5032532;28;19917;-80
2023/07/23 10:04:56;;;;;;;;;;;15.70;99.90;;;;;;5015252;28;20348;-79
2023/07/23 10:07:23;;;;;;;;;;;15.70;99.90;;;;;;5033005;28;19966;-82
2023/07/23 10:09:50;;;;;;;;;;;15.70;99.90;;;;;;5031562;28;19962;-79
2023/07/23 10:12:15;;;;;;;;;;;15.70;99.90;;;;;;5031221;28;19966;-79
2023/07/23 10:14:41;;;;;;;;;;;15.80;99.90;;;;;;5032684;28;19916;-81
2023/07/23 10:17:07;;;;;;;;;;;15.80;99.90;;;;;;5032922;28;20063;-79
2023/07/23 10:19:33;;;;;;;;;;;15.80;99.90;;;;;;5016449;28;19917;-78
2023/07/23 10:21:58;;;;;;;;;;;15.90;99.90;;;;;;5033152;28;19927;-78
2023/07/23 10:24:36;;;;;;;;;;;15.90;99.90;;;;;;5032917;28;20372;-78
2023/07/23 10:27:09;;;;;;;;;;;15.90;99.90;;;;;;5036586;28;19924;-79
2023/07/23 10:29:34;;;;;;;;;;;15.90;99.90;;;;;;5053222;28;19975;-78
2023/07/23 10:32:19;;;;;;;;;;;16.00;99.90;;;;;;5053071;28;19956;-78
2023/07/23 10:34:44;;;;;;;;;;;15.90;99.90;;;;;;5053097;28;19974;-81
2023/07/23 10:37:18;;;;;;;;;;;16.00;99.90;;;;;;5052711;28;20307;-78
2023/07/23 10:39:45;;;;;;;;;;;15.90;99.90;;;;;;5054553;28;19943;-77
2023/07/23 10:42:30;;;;;;;;;;;16.00;99.90;;;;;;5052485;28;19924;-79
2023/07/23 10:45:12;;;;;;;;;;;15.90;99.90;;;;;;5053042;28;19959;-77
2023/07/23 10:47:38;;;;;;;;;;;16.00;99.90;;;;;;5052708;28;19966;-78
2023/07/23 10:50:14;;;;;;;;;;;16.00;99.90;;;;;;5052515;28;19921;-80
2023/07/23 10:52:42;;;;;;;;;;;16.00;99.90;;;;;;5052394;28;20426;-78
2023/07/23 10:55:08;;;;;;;;;;;16.00;99.90;;;;;;5054030;28;19917;-78
2023/07/23 10:57:36;;;;;;;;;;;16.00;99.90;;;;;;5052346;28;19925;-78
2023/07/23 11:00:02;;;;;;;;;;;16.10;99.90;;;;;;5052571;28;19921;-78
2023/07/23 11:02:29;;;;;;;;;;;16.10;99.90;;;;;;5052078;28;19916;-79
2023/07/23 11:04:57;;;;;;;;;;;16.10;99.90;;;;;;5052416;28;19970;-77
2023/07/23 11:07:27;;;;;;;;;;;16.20;99.90;;;;;;5052706;28;19970;-79
2023/07/23 11:09:56;;;;;;;;;;;16.20;99.90;;;;;;5052751;28;19931;-77
2023/07/23 11:12:22;;;;;;;;;;;16.10;99.90;;;;;;5052197;28;19921;-78
2023/07/23 11:14:47;;;;;;;;;;;16.20;99.90;;;;;;5052152;28;19960;-78
2023/07/23 11:17:13;;;;;;;;;;;16.20;99.90;;;;;;5052069;28;19983;-79
2023/07/23 11:19:44;;;;;;;;;;;16.30;99.90;;;;;;5052465;28;19924;-78
2023/07/23 11:22:11;;;;;;;;;;;16.20;99.90;;;;;;5052433;28;20273;-78
2023/07/23 11:24:37;;;;;;;;;;;16.20;99.90;;;;;;5052086;28;19917;-77
2023/07/23 11:27:03;;;;;;;;;;;16.20;99.90;;;;;;5052666;28;19924;-77
2023/07/23 11:29:29;;;;;;;;;;;16.20;99.90;;;;;;5052433;28;19939;-78
2023/07/23 11:31:55;;;;;;;;;;;16.20;99.90;;;;;;5051993;28;19921;-79
2023/07/23 11:34:22;;;;;;;;;;;16.20;99.90;;;;;;5052114;28;19928;-78
2023/07/23 11:36:52;;;;;;;;;;;16.20;99.90;;;;;;5052419;28;19917;-76
2023/07/23 11:39:18;;;;;;;;;;;16.30;99.90;;;;;;5052018;28;19971;-77
2023/07/23 11:41:44;;;;;;;;;;;16.30;99.90;;;;;;5052219;28;20346;-77
2023/07/23 11:44:11;;;;;;;;;;;16.30;99.90;;;;;;5052271;28;19963;-76
2023/07/23 11:46:37;;;;;;;;;;;16.30;99.90;;;;;;5052051;28;19975;-78
2023/07/23 11:49:04;;;;;;;;;;;16.40;99.90;;;;;;5051938;28;19923;-77
2023/07/23 11:51:31;;;;;;;;;;;16.40;99.90;;;;;;5051766;28;19916;-77
2023/07/23 11:54:10;;;;;;;;;;;16.40;99.90;;;;;;5035362;28;19959;-75
2023/07/23 11:56:48;;;;;;;;;;;16.50;99.90;;;;;;5053135;28;20383;-78
2023/07/23 11:59:15;;;;;;;;;;;16.60;99.90;;;;;;5052362;28;19921;-79
2023/07/23 12:01:40;;;;;;;;;;;16.60;99.90;;;;;;5051541;28;20426;-75
2023/07/23 12:04:07;;;;;;;;;;;16.80;99.90;;;;;;5052943;28;19917;-77
2023/07/23 12:06:33;;;;;;;;;;;16.90;99.90;;;;;;5035233;28;19924;-78
2023/07/23 12:08:59;;;;;;;;;;;17.10;99.90;;;;;;5052030;28;19924;-78
2023/07/23 12:11:26;;;;;;;;;;;17.30;99.90;;;;;;5051593;28;20318;-77
2023/07/23 12:13:53;;;;;;;;;;;17.40;99.90;;;;;;5053076;28;19918;-79
2023/07/23 12:16:32;;;;;;;;;;;17.50;99.90;;;;;;5055612;28;19921;-77
2023/07/23 12:19:05;;;;;;;;;;;17.50;99.90;;;;;;5038613;28;20364;-77
2023/07/23 12:21:52;;;;;;;;;;;17.60;99.90;;;;;;5055391;28;19923;-76
2023/07/23 12:24:19;;;;;;;;;;;17.50;99.90;;;;;;5055343;28;20013;-77
2023/07/23 12:26:49;;;;;;;;;;;17.50;99.90;;;;;;5057055;28;19916;-77
2023/07/23 12:29:15;;;;;;;;;;;17.40;99.90;;;;;;5056763;28;19924;-78
2023/07/23 12:31:42;;;;;;;;;;;17.30;99.90;;;;;;5054944;28;19942;-77
2023/07/23 12:34:08;;;;;;;;;;;17.30;99.90;;;;;;5056266;28;19920;-78
2023/07/23 12:36:34;;;;;;;;;;;17.20;99.90;;;;;;5056294;28;19956;-77
2023/07/23 12:38:59;;;;;;;;;;;17.20;99.90;;;;;;5038159;28;19971;-78
2023/07/23 12:41:25;;;;;;;;;;;17.20;99.90;;;;;;5054755;28;19917;-77
2023/07/23 12:43:50;;;;;;;;;;;17.20;99.90;;;;;;5054882;28;19921;-80
2023/07/23 12:46:16;;;;;;;;;;;17.20;99.90;;;;;;5054866;28;19916;-77
2023/07/23 12:48:42;;;;;;;;;;;17.30;99.90;;;;;;5054749;28;19917;-78
2023/07/23 12:51:07;;;;;;;;;;;17.30;99.90;;;;;;5054660;28;20284;-77
2023/07/23 12:53:33;;;;;;;;;;;17.40;99.90;;;;;;5054672;28;19917;-77
2023/07/23 12:55:58;;;;;;;;;;;17.50;99.90;;;;;;5038048;28;19917;-77
2023/07/23 12:58:24;;;;;;;;;;;17.60;99.90;;;;;;5054599;28;19924;-75
2023/07/23 13:00:49;;;;;;;;;;;17.70;99.90;;;;;;5054507;28;19969;-77
2023/07/23 13:03:15;;;;;;;;;;;17.90;99.90;;;;;;5055953;28;19917;-77
2023/07/23 13:05:40;;;;;;;;;;;18.00;99.90;;;;;;5037961;28;19923;-79
2023/07/23 13:08:06;;;;;;;;;;;18.10;99.90;;;;;;5054476;28;19923;-78
2023/07/23 13:10:31;;;;;;;;;;;18.20;99.90;;;;;;5054405;28;19946;-78
2023/07/23 13:12:57;;;;;;;;;;;18.30;99.90;;;;;;5054354;28;19923;-77
2023/07/23 13:15:22;;;;;;;;;;;18.40;99.90;;;;;;5054330;28;20008;-78
2023/07/23 13:17:48;;;;;;;;;;;18.50;99.90;;;;;;5054361;28;20003;-81
2023/07/23 13:20:14;;;;;;;;;;;18.60;99.90;;;;;;5054152;28;20397;-76
2023/07/23 13:22:39;;;;;;;;;;;18.70;99.90;;;;;;5054109;28;20007;-78
2023/07/23 13:25:05;;;;;;;;;;;18.80;99.90;;;;;;5036172;28;19923;-79
2023/07/23 13:27:30;;;;;;;;;;;18.90;99.90;;;;;;5054269;28;19916;-77
2023/07/23 13:29:56;;;;;;;;;;;19.00;99.90;;;;;;5037640;28;19917;-78
2023/07/23 13:32:21;;;;;;;;;;;19.20;99.90;;;;;;5053812;28;19918;-77
2023/07/23 13:34:47;;;;;;;;;;;19.20;99.90;;;;;;5053870;28;19916;-80
2023/07/23 13:37:12;;;;;;;;;;;19.20;99.90;;;;;;5054666;28;19917;-77
2023/07/23 13:39:38;;;;;;;;;;;19.30;99.90;;;;;;5053788;28;20291;-80
2023/07/23 13:42:03;;;;;;;;;;;19.40;99.90;;;;;;5053666;28;19920;-78
2023/07/23 13:44:29;;;;;;;;;;;19.50;99.90;;;;;;5054176;28;19928;-76
2023/07/23 13:46:54;;;;;;;;;;;19.60;99.90;;;;;;5053980;28;20003;-79
2023/07/23 13:49:20;;;;;;;;;;;19.70;99.90;;;;;;5053920;28;19975;-79
2023/07/23 13:51:46;;;;;;;;;;;19.70;99.90;;;;;;5054744;28;19916;-74
2023/07/23 13:54:11;;;;;;;;;;;19.70;99.90;;;;;;5053552;28;20392;-79
2023/07/23 13:56:37;;;;;;;;;;;19.70;99.90;;;;;;5037205;28;19920;-78
2023/07/23 13:59:02;;;;;;;;;;;19.60;99.90;;;;;;5053447;28;19921;-79
2023/07/23 14:01:28;;;;;;;;;;;19.60;99.90;;;;;;5053254;28;19916;-79
2023/07/23 14:03:53;;;;;;;;;;;19.50;99.90;;;;;;5053503;28;20089;-80
2023/07/23 14:06:21;;;;;;;;;;;19.40;99.90;;;;;;5053455;28;20004;-79
2023/07/23 14:08:47;;;;;;;;;;;19.40;99.90;;;;;;5053343;28;19917;-77
2023/07/23 14:11:13;;;;;;;;;;;19.30;99.90;;;;;;5053087;28;19917;-78
2023/07/23 14:13:44;;;;;;;;;;;19.30;99.90;;;;;;5054464;28;19921;-78
2023/07/23 14:16:09;;;;;;;;;;;19.30;99.90;;;;;;5053981;28;20413;-81
2023/07/23 14:18:35;;;;;;;;;;;19.40;99.90;;;;;;5053818;28;19943;-82
2023/07/23 14:21:00;;;;;;;;;;;19.40;99.90;;;;;;5053013;28;19923;-78
2023/07/23 14:23:26;;;;;;;;;;;19.50;99.90;;;;;;5053020;28;19920;-75
2023/07/23 14:25:51;;;;;;;;;;;19.60;99.90;;;;;;5053081;28;19930;-78
2023/07/23 14:28:17;;;;;;;;;;;19.80;99.90;;;;;;5052943;28;19968;-77
2023/07/23 14:30:43;;;;;;;;;;;19.90;99.90;;;;;;5053149;28;20003;-78
2023/07/23 14:33:08;;;;;;;;;;;20.10;99.90;;;;;;5044498;28;20027;-77
2023/07/23 14:35:34;;;;;;;;;;;20.40;99.90;;;;;;5053106;28;19977;-78
2023/07/23 14:37:59;;;;;;;;;;;20.70;99.90;;;;;;5052441;28;19971;-78
2023/07/23 14:40:25;;;;;;;;;;;20.90;99.90;;;;;;5052478;28;20292;-78
2023/07/23 14:42:50;;;;;;;;;;;21.00;99.90;;;;;;5053073;28;19967;-79
2023/07/23 14:45:16;;;;;;;;;;;20.90;99.90;;;;;;5054113;28;19917;-77
2023/07/23 14:47:41;;;;;;;;;;;20.80;99.90;;;;;;5053036;28;20352;-77
2023/07/23 14:50:08;;;;;;;;;;;20.70;99.90;;;;;;5053992;28;20384;-77
2023/07/23 14:52:34;;;;;;;;;;;20.70;99.90;;;;;;5052545;28;19923;-77
2023/07/23 14:55:02;;;;;;;;;;;20.60;99.90;;;;;;5052608;28;19917;-81
2023/07/23 14:57:28;;;;;;;;;;;20.50;99.90;;;;;;5052767;28;19921;-79
2023/07/23 14:59:54;;;;;;;;;;;20.60;99.90;;;;;;5054065;28;20364;-79
2023/07/23 15:02:20;;;;;;;;;;;20.60;99.90;;;;;;5052603;28;19916;-77
2023/07/23 15:04:45;;;;;;;;;;;20.60;99.90;;;;;;5052713;28;20364;-78
2023/07/23 15:07:11;;;;;;;;;;;20.60;99.90;;;;;;5052740;28;20372;-77
2023/07/23 15:09:37;;;;;;;;;;;20.60;99.90;;;;;;5052412;28;20329;-78
2023/07/23 15:12:03;;;;;;;;;;;20.60;99.90;;;;;;5052218;28;19917;-78
2023/07/23 15:14:28;;;;;;;;;;;20.50;99.90;;;;;;5052300;28;19942;-78
2023/07/23 15:16:54;;;;;;;;;;;20.50;99.90;;;;;;5035677;28;19926;-77
2023/07/23 15:19:20;;;;;;;;;;;20.40;99.90;;;;;;5052204;28;20022;-77
2023/07/23 15:21:45;;;;;;;;;;;20.40;99.90;;;;;;5052180;28;19917;-77
2023/07/23 15:24:11;;;;;;;;;;;20.40;99.90;;;;;;5052301;28;20326;-78
2023/07/23 15:26:37;;;;;;;;;;;20.50;99.90;;;;;;5036289;28;19923;-77
2023/07/23 15:29:03;;;;;;;;;;;20.50;99.90;;;;;;5052274;28;20395;-76
2023/07/23 15:31:32;;;;;;;;;;;20.70;99.90;;;;;;5052422;28;20320;-78
2023/07/23 15:33:57;;;;;;;;;;;20.80;99.90;;;;;;5052080;28;19924;-76
2023/07/23 15:36:23;;;;;;;;;;;21.00;99.90;;;;;;5052398;28;19917;-77
2023/07/23 15:38:48;;;;;;;;;;;21.10;99.90;;;;;;5052061;28;20011;-77
2023/07/23 15:41:14;;;;;;;;;;;21.30;99.90;;;;;;5051960;28;19921;-77
2023/07/23 15:43:39;;;;;;;;;;;21.40;99.90;;;;;;5052023;28;19917;-77
2023/07/23 15:46:05;;;;;;;;;;;21.50;99.90;;;;;;5053995;28;19917;-78
2023/07/23 15:48:31;;;;;;;;;;;21.40;99.90;;;;;;5052875;28;19979;-77
2023/07/23 15:50:57;;;;;;;;;;;21.50;99.90;;;;;;5055854;28;19959;-78
2023/07/23 15:53:22;;;;;;;;;;;21.50;99.90;;;;;;5039315;28;20015;-77
2023/07/23 15:55:48;;;;;;;;;;;21.60;99.90;;;;;;5055922;28;19923;-77
2023/07/23 15:58:13;;;;;;;;;;;21.70;99.90;;;;;;5055719;28;19924;-77
2023/07/23 16:00:39;;;;;;;;;;;21.80;99.90;;;;;;5055567;28;19925;-77
2023/07/23 16:03:04;;;;;;;;;;;21.90;99.90;;;;;;5055540;28;19916;-77
2023/07/23 16:05:30;;;;;;;;;;;21.90;99.90;;;;;;5055571;28;20003;-77
2023/07/23 16:07:55;;;;;;;;;;;22.00;99.90;;;;;;5053216;28;19924;-77
2023/07/23 16:10:21;;;;;;;;;;;22.10;99.90;;;;;;5055968;28;20388;-75
2023/07/23 16:12:46;;;;;;;;;;;22.10;99.90;;;;;;5055973;28;20241;-76
2023/07/23 16:15:12;;;;;;;;;;;22.00;99.90;;;;;;5055522;28;20380;-76
2023/07/23 16:17:37;;;;;;;;;;;22.10;99.90;;;;;;5055456;28;19920;-77
2023/07/23 16:20:03;;;;;;;;;;;22.00;99.90;;;;;;5038515;28;20307;-75
2023/07/23 16:22:29;;;;;;;;;;;22.00;99.90;;;;;;5053690;28;19924;-75
2023/07/23 16:24:54;;;;;;;;;;;22.00;99.90;;;;;;5036331;28;19921;-75
2023/07/23 16:27:25;;;;;;;;;;;22.10;99.90;;;;;;5055920;28;20225;-76
2023/07/23 16:29:50;;;;;;;;;;;22.20;99.90;;;;;;5055397;28;19923;-78
2023/07/23 16:32:16;;;;;;;;;;;22.10;99.90;;;;;;5054994;28;19917;-76
2023/07/23 16:34:42;;;;;;;;;;;22.20;99.90;;;;;;5056559;28;19924;-75
2023/07/23 16:37:09;;;;;;;;;;;22.20;99.90;;;;;;5054910;28;20375;-76
2023/07/23 16:39:34;;;;;;;;;;;22.10;99.90;;;;;;5054926;28;20014;-76
2023/07/23 16:42:02;;;;;;;;;;;22.10;99.90;;;;;;5054684;28;20384;-75
2023/07/23 16:44:28;;;;;;;;;;;22.10;99.90;;;;;;5054736;28;19917;-78
2023/07/23 16:46:53;;;;;;;;;;;22.00;99.90;;;;;;5038242;28;19920;-77
2023/07/23 16:49:21;;;;;;;;;;;22.00;99.90;;;;;;5038083;28;19951;-76
2023/07/23 16:51:47;;;;;;;;;;;22.00;99.90;;;;;;5055219;28;19966;-76
2023/07/23 16:54:12;;;;;;;;;;;21.90;99.90;;;;;;5054650;28;19916;-76
2023/07/23 16:56:38;;;;;;;;;;;21.80;99.90;;;;;;5054602;28;19917;-76
2023/07/23 16:59:03;;;;;;;;;;;21.70;99.90;;;;;;5054140;28;19921;-78
2023/07/23 17:01:29;;;;;;;;;;;21.70;99.90;;;;;;5055634;28;19917;-76
2023/07/23 17:03:55;;;;;;;;;;;21.60;99.90;;;;;;5054505;28;19916;-78
2023/07/23 17:06:22;;;;;;;;;;;21.50;99.90;;;;;;5054809;28;19921;-75
2023/07/23 17:08:48;;;;;;;;;;;21.40;99.90;;;;;;5055681;28;19916;-77
2023/07/23 17:11:22;;;;;;;;;;;21.40;99.90;;;;;;5054575;28;19966;-77
2023/07/23 17:13:51;;;;;;;;;;;21.40;99.90;;;;;;5054622;28;19924;-76
2023/07/23 17:16:17;;;;;;;;;;;21.30;99.90;;;;;;5054300;28;19924;-78
2023/07/23 17:18:42;;;;;;;;;;;21.40;99.90;;;;;;5054193;28;19921;-76
2023/07/23 17:21:08;;;;;;;;;;;21.40;99.90;;;;;;5055603;28;19923;-79
2023/07/23 17:23:33;;;;;;;;;;;21.40;99.90;;;;;;5054078;28;19946;-76
2023/07/23 17:25:59;;;;;;;;;;;21.40;99.90;;;;;;5054039;28;20304;-77
2023/07/23 17:28:24;;;;;;;;;;;21.50;99.90;;;;;;5054018;28;19920;-76
2023/07/23 17:30:57;;;;;;;;;;;21.40;99.90;;;;;;5055442;28;19924;-77
2023/07/23 17:33:23;;;;;;;;;;;21.50;99.90;;;;;;5053977;28;19917;-77
2023/07/23 17:35:48;;;;;;;;;;;21.40;99.90;;;;;;5053859;28;19923;-76
2023/07/23 17:38:14;;;;;;;;;;;21.30;99.90;;;;;;5053869;28;20066;-77
2023/07/23 17:40:39;;;;;;;;;;;21.30;99.90;;;;;;5053677;28;20034;-78
2023/07/23 17:43:05;;;;;;;;;;;21.10;99.90;;;;;;5053626;28;19999;-76
2023/07/23 17:45:31;;;;;;;;;;;21.10;99.90;;;;;;5043032;28;19971;-78
2023/07/23 17:47:56;;;;;;;;;;;21.20;99.90;;;;;;5033749;28;19917;-77
2023/07/23 17:50:22;;;;;;;;;;;21.10;99.90;;;;;;5034155;28;19917;-76
2023/07/23 17:52:47;;;;;;;;;;;21.10;99.90;;;;;;5033819;28;19917;-76
2023/07/23 17:55:14;;;;;;;;;;;21.10;99.90;;;;;;5035090;28;19971;-77
2023/07/23 17:57:39;;;;;;;;;;;21.00;99.90;;;;;;5034777;28;19921;-79
2023/07/23 18:00:06;;;;;;;;;;;21.00;99.90;;;;;;5033775;28;20249;-78
2023/07/23 18:02:31;;;;;;;;;;;21.00;99.90;;;;;;5033209;28;19956;-77
2023/07/23 18:04:57;;;;;;;;;;;20.90;99.90;;;;;;5033612;28;20327;-78
2023/07/23 18:07:23;;;;;;;;;;;20.80;99.90;;;;;;5034503;28;19966;-77
2023/07/23 18:09:48;;;;;;;;;;;20.80;99.90;;;;;;5033830;28;19917;-77
2023/07/23 18:12:14;;;;;;;;;;;20.80;99.90;;;;;;5032686;28;19921;-78